Time;durP1;ratioP1;P1;durP2;ratioP2;P2;SDS_P1;SDS_P2;PMS_P1;PMS_P2;Temp;Humidity;BMP_temperature;BMP_pressure;BME280_temperature;BME280_humidity;BME280_pressure;Samples;Min_cycle;Max_cycle;Signal;HPM_P1;HPM_P2
2022/03/17 00:02:24;;;;;;;;;;;;;;;1.77;41.37;101574.32;1700987;84;21480;-46
2022/03/17 00:04:52;;;;;;;12.60;7.90;;;;;;;1.68;41.81;101575.86;1698541;84;21838;-46
2022/03/17 00:07:20;;;;;;;12.93;8.05;;;;;;;1.66;41.77;101571.48;1698398;83;21495;-47
2022/03/17 00:09:47;;;;;;;14.20;7.75;;;;;;;1.64;41.94;101584.80;1676472;83;21512;-47
2022/03/17 00:12:15;;;;;;;12.82;7.67;;;;;;;1.57;42.10;101573.42;1669928;85;21627;-48
2022/03/17 00:14:42;;;;;;;12.78;8.18;;;;;;;1.58;42.21;101582.07;1670626;85;21455;-48
2022/03/17 00:17:08;;;;;;;13.33;7.97;;;;;;;1.58;42.50;101574.29;1712511;82;22113;-48
2022/03/17 00:19:39;;;;;;;16.48;8.23;;;;;;;1.61;42.45;101573.95;1712155;83;21431;-48
2022/03/17 00:22:08;;;;;;;13.70;8.25;;;;;;;1.61;42.52;101571.78;1677835;85;21451;-48
2022/03/17 00:24:36;;;;;;;15.90;9.08;;;;;;;1.65;42.37;101575.77;1712081;83;21519;-48
2022/03/17 00:27:05;;;;;;;19.75;9.83;;;;;;;1.60;42.43;101573.91;1712063;83;21610;-48
2022/03/17 00:29:36;;;;;;;15.20;9.20;;;;;;;1.59;42.53;101583.84;1737215;82;21642;-48
2022/03/17 00:32:04;;;;;;;19.60;9.63;;;;;;;1.58;42.89;101579.05;1741725;82;21595;-47
2022/03/17 00:34:31;;;;;;;17.00;9.55;;;;;;;1.61;42.78;101574.38;1735372;81;21401;-48
2022/03/17 00:36:57;;;;;;;21.10;9.53;;;;;;;1.62;42.77;101573.52;1718869;81;21485;-48
2022/03/17 00:39:25;;;;;;;18.70;9.38;;;;;;;1.65;42.71;101581.39;1718685;81;21449;-47
2022/03/17 00:41:52;;;;;;;21.27;9.53;;;;;;;1.64;42.58;101584.80;1718657;83;21859;-47
2022/03/17 00:44:19;;;;;;;18.83;8.90;;;;;;;1.65;42.58;101581.39;1718631;83;21477;-47
2022/03/17 00:46:46;;;;;;;20.77;9.55;;;;;;;1.62;42.59;101587.78;1718576;81;21418;-48
2022/03/17 00:49:14;;;;;;;16.32;9.15;;;;;;;1.59;42.69;101598.97;1718870;81;21437;-47
2022/03/17 00:51:41;;;;;;;13.13;8.80;;;;;;;1.59;42.59;101587.73;1718688;83;21470;-47
2022/03/17 00:54:08;;;;;;;18.05;8.55;;;;;;;1.58;42.66;101583.37;1713334;83;21878;-48
2022/03/17 00:56:37;;;;;;;14.85;7.92;;;;;;;1.56;42.70;101584.62;1689536;83;21547;-47
2022/03/17 00:59:03;;;;;;;16.83;8.33;;;;;;;1.59;42.81;101583.84;1689784;83;21425;-48
2022/03/17 01:01:31;;;;;;;14.43;8.18;;;;;;;1.58;42.86;101580.77;1667626;84;20987;-48
2022/03/17 01:03:58;;;;;;;14.90;9.03;;;;;;;1.55;42.97;101585.05;1661683;85;21556;-47
2022/03/17 01:06:25;;;;;;;12.63;6.70;;;;;;;1.55;43.13;101585.47;1661960;84;21905;-48
2022/03/17 01:08:52;;;;;;;16.48;8.58;;;;;;;1.55;43.02;101581.59;1661845;85;21477;-48
2022/03/17 01:11:19;;;;;;;9.40;6.83;;;;;;;1.56;43.03;101580.73;1661949;85;21517;-48
2022/03/17 01:13:45;;;;;;;18.63;8.53;;;;;;;1.55;43.20;101587.64;1661937;85;21518;-47
2022/03/17 01:16:15;;;;;;;15.98;8.48;;;;;;;1.54;43.10;101586.30;1661705;84;21771;-47
2022/03/17 01:18:41;;;;;;;14.03;8.58;;;;;;;1.53;43.10;101582.84;1660621;85;21725;-47
2022/03/17 01:21:10;;;;;;;14.80;8.78;;;;;;;1.55;43.04;101579.86;1661679;84;21553;-47
2022/03/17 01:23:36;;;;;;;16.07;9.20;;;;;;;1.54;43.04;101584.61;1661915;84;21563;-47
2022/03/17 01:26:03;;;;;;;16.07;8.90;;;;;;;1.50;43.09;101585.34;1662028;84;21468;-47
2022/03/17 01:28:30;;;;;;;9.77;6.70;;;;;;;1.49;43.21;101588.80;1661901;85;21512;-47
2022/03/17 01:30:57;;;;;;;18.70;9.73;;;;;;;1.52;43.33;101590.14;1661938;85;21961;-47
2022/03/17 01:33:23;;;;;;;16.70;9.47;;;;;;;1.50;43.15;101593.12;1661977;84;21461;-48
2022/03/17 01:35:50;;;;;;;12.07;8.80;;;;;;;1.47;43.37;101596.05;1699592;82;21495;-48
2022/03/17 01:38:17;;;;;;;18.27;9.33;;;;;;;1.45;43.47;101590.85;1683189;83;21928;-48
2022/03/17 01:40:44;;;;;;;18.95;10.28;;;;;;;1.47;43.51;101595.66;1682816;84;21482;-47
2022/03/17 01:43:10;;;;;;;16.97;7.77;;;;;;;1.41;43.61;101592.87;1665584;85;21793;-47
2022/03/17 01:45:38;;;;;;;16.93;8.65;;;;;;;1.37;43.82;101596.23;1664878;85;21634;-47
2022/03/17 01:48:05;;;;;;;14.87;8.55;;;;;;;1.34;43.83;101597.48;1664518;85;21440;-47
2022/03/17 01:50:31;;;;;;;16.30;9.25;;;;;;;1.32;43.86;101590.08;1665451;85;20983;-47
2022/03/17 01:52:58;;;;;;;21.17;9.83;;;;;;;1.32;43.93;101600.02;1665549;85;21666;-47
2022/03/17 01:55:25;;;;;;;15.80;9.13;;;;;;;1.32;43.98;101596.13;1665373;85;21915;-48
2022/03/17 01:57:52;;;;;;;17.00;9.18;;;;;;;1.29;43.97;101586.97;1665400;85;21447;-47
2022/03/17 02:00:19;;;;;;;15.75;8.53;;;;;;;1.24;44.00;101596.33;1665575;85;21472;-47
2022/03/17 02:02:48;;;;;;;13.90;7.97;;;;;;;1.24;44.15;101595.03;1665527;85;21472;-48
2022/03/17 02:05:16;;;;;;;12.78;8.75;;;;;;;1.24;44.14;101596.75;1665246;85;21050;-47
2022/03/17 02:07:52;;;;;;;15.18;7.97;;;;;;;1.21;44.19;101596.70;1665218;85;21620;-47
2022/03/17 02:10:18;;;;;;;14.05;7.60;;;;;;;1.18;44.35;101602.66;1665089;83;21464;-48
2022/03/17 02:15:32;;;;;;;12.70;7.83;;;;;;;1.14;44.52;101609.89;1692616;84;21562;-47
2022/03/17 02:18:00;;;;;;;14.75;7.15;;;;;;;1.08;44.61;101606.71;1692553;84;21570;-47
2022/03/17 02:20:29;;;;;;;11.68;7.28;;;;;;;1.05;44.61;101612.22;1693434;84;21788;-47
2022/03/17 02:25:33;;;;;;;12.82;7.20;;;;;;;1.03;44.70;101610.02;1693338;84;21518;-47
2022/03/17 02:25:34;;;;;;;11.55;6.55;;;;;;;1.00;44.77;101612.11;1689870;84;21528;-47
2022/03/17 02:28:05;;;;;;;12.63;6.90;;;;;;;1.00;44.70;101618.59;1693355;84;21027;-47
2022/03/17 02:30:36;;;;;;;13.80;6.87;;;;;;;0.97;44.71;101618.06;1693632;84;21453;-47
2022/03/17 02:33:09;;;;;;;11.57;7.45;;;;;;;0.96;44.70;101624.49;1693416;84;21924;-47
2022/03/17 02:35:41;;;;;;;9.50;6.42;;;;;;;0.96;44.77;101623.20;1691920;84;21552;-47
2022/03/17 02:38:06;;;;;;;14.25;7.80;;;;;;;0.96;44.93;101628.38;1689142;84;21432;-47
2022/03/17 02:40:36;;;;;;;10.65;7.00;;;;;;;0.99;44.88;101627.18;1705941;83;21423;-47
2022/03/17 02:43:04;;;;;;;10.88;6.55;;;;;;;1.01;44.69;101629.82;1706066;83;21447;-47
2022/03/17 02:45:32;;;;;;;12.80;7.17;;;;;;;0.97;44.58;101628.42;1706055;83;21755;-47
2022/03/17 02:47:59;;;;;;;9.88;6.67;;;;;;;0.93;44.60;101638.67;1742073;82;20943;-50
2022/03/17 02:52:53;;;;;;;9.35;6.33;;;;;;;0.96;44.73;101633.56;1813281;78;22634;-47
2022/03/17 02:55:20;;;;;;;10.70;6.60;;;;;;;0.95;44.53;101635.28;1768387;80;21518;-47
2022/03/17 02:57:49;;;;;;;8.88;5.95;;;;;;;0.97;44.52;101633.61;1737894;82;21805;-47
2022/03/17 03:00:16;;;;;;;11.03;6.70;;;;;;;0.97;44.42;101640.51;1737834;82;21569;-47
2022/03/17 03:02:44;;;;;;;11.15;6.75;;;;;;;0.94;44.34;101637.43;1737860;82;21447;-47
2022/03/17 03:05:11;;;;;;;13.45;6.80;;;;;;;0.95;44.17;101639.59;1737840;82;21446;-47
2022/03/17 03:07:40;;;;;;;10.30;6.40;;;;;;;0.95;44.16;101643.48;1741085;80;21530;-47
2022/03/17 03:10:07;;;;;;;12.75;7.15;;;;;;;0.95;44.05;101639.16;1775065;80;21522;-47
2022/03/17 03:12:36;;;;;;;10.25;6.70;;;;;;;0.94;43.94;101640.02;1774582;80;21587;-47
2022/03/17 03:15:04;;;;;;;14.55;7.08;;;;;;;0.92;43.83;101646.87;1775065;79;20919;-47
2022/03/17 03:17:32;;;;;;;12.95;7.97;;;;;;;0.89;43.86;101649.78;1774959;80;21479;-48
2022/03/17 03:19:59;;;;;;;12.95;6.87;;;;;;;0.86;43.92;101647.09;1774911;79;25939;-47
2022/03/17 03:22:29;;;;;;;13.85;7.58;;;;;;;0.83;43.86;101648.29;1774810;80;21877;-47
2022/03/17 03:24:57;;;;;;;13.58;7.17;;;;;;;0.82;43.95;101653.89;1774655;80;21424;-48
2022/03/17 03:27:27;;;;;;;14.07;7.00;;;;;;;0.80;44.06;101662.47;1762297;79;21609;-46
2022/03/17 03:29:55;;;;;;;12.47;7.00;;;;;;;0.80;44.06;101662.47;1741667;81;21609;-47
2022/03/17 03:32:23;;;;;;;13.78;7.75;;;;;;;0.80;43.71;101658.16;1743783;81;21545;-47
2022/03/17 03:34:50;;;;;;;13.55;7.85;;;;;;;0.77;43.78;101659.34;1743974;81;21468;-47
2022/03/17 03:37:23;;;;;;;11.18;6.62;;;;;;;0.74;43.89;101661.87;1743842;81;21537;-47
2022/03/17 03:39:54;;;;;;;11.43;6.85;;;;;;;0.72;43.83;101667.42;1743774;81;21677;-47
2022/03/17 03:42:22;;;;;;;13.08;6.92;;;;;;;0.69;43.93;101672.49;1743752;81;20982;-47
2022/03/17 03:44:49;;;;;;;14.68;6.87;;;;;;;0.72;43.92;101675.19;1743999;80;21041;-47
2022/03/17 03:47:15;;;;;;;12.68;6.42;;;;;;;0.71;43.79;101667.81;1744103;80;21937;-47
2022/03/17 03:49:43;;;;;;;12.33;7.22;;;;;;;0.76;43.59;101677.03;1743909;81;20942;-47
2022/03/17 03:52:12;;;;;;;11.43;6.50;;;;;;;0.78;43.40;101680.54;1738219;81;21550;-47
2022/03/17 03:54:39;;;;;;;11.57;6.40;;;;;;;0.77;43.20;101679.67;1733525;82;21494;-47
2022/03/17 03:57:06;;;;;;;12.15;7.15;;;;;;;0.75;43.09;101676.16;1733741;82;21586;-47
2022/03/17 03:59:33;;;;;;;9.58;6.75;;;;;;;0.73;43.01;101679.09;1733730;82;21456;-47
2022/03/17 04:02:07;;;;;;;12.82;7.67;;;;;;;0.75;43.05;101683.03;1745873;80;21408;-47
2022/03/17 04:04:40;;;;;;;10.20;6.40;;;;;;;0.80;42.88;101685.34;1763551;81;21622;-48
2022/03/17 04:07:11;;;;;;;12.15;7.67;;;;;;;0.82;42.68;101690.16;1763514;81;21519;-48
2022/03/17 04:09:41;;;;;;;12.35;6.90;;;;;;;0.78;42.55;101687.88;1763509;79;21495;-47
2022/03/17 04:12:11;;;;;;;14.28;7.70;;;;;;;0.76;42.58;101694.73;1763376;79;21748;-47
2022/03/17 04:14:37;;;;;;;15.48;8.15;;;;;;;0.78;42.61;101696.95;1763314;81;21479;-48
2022/03/17 04:17:05;;;;;;;16.00;8.53;;;;;;;0.81;42.45;101699.16;1763609;81;21436;-47
2022/03/17 04:19:32;;;;;;;14.50;9.00;;;;;;;0.74;42.50;101698.98;1763454;81;21432;-47
2022/03/17 04:21:59;;;;;;;13.13;7.87;;;;;;;0.73;42.49;101702.39;1763698;81;21625;-47
2022/03/17 04:24:26;;;;;;;16.17;8.83;;;;;;;0.75;42.45;101707.63;1763708;81;21613;-47
2022/03/17 04:26:53;;;;;;;14.40;7.97;;;;;;;0.76;42.47;101703.80;1763602;79;21460;-47
2022/03/17 04:29:20;;;;;;;15.07;8.77;;;;;;;0.76;42.31;101703.80;1763846;79;21464;-47
2022/03/17 04:31:47;;;;;;;11.40;7.62;;;;;;;0.74;42.49;101704.17;1763613;81;21452;-47
2022/03/17 04:34:15;;;;;;;12.05;7.05;;;;;;;0.75;42.44;101707.23;1763400;79;21065;-47
2022/03/17 04:36:42;;;;;;;10.05;7.08;;;;;;;0.79;42.45;101712.06;1763733;81;21884;-47
2022/03/17 04:39:12;;;;;;;14.43;7.95;;;;;;;0.85;42.56;101717.84;1763559;81;21420;-47
2022/03/17 04:41:40;;;;;;;11.08;7.42;;;;;;;0.90;42.39;101721.45;1763458;79;21444;-47
2022/03/17 04:44:07;;;;;;;;;;;;;;;0.93;42.33;101722.44;1766037;81;21481;-46
2022/03/17 04:49:22;;;;;;;12.15;7.20;;;;;;;-0.30;45.83;101734.00;1787266;79;23094;-48
2022/03/17 04:51:50;;;;;;;13.70;7.42;;;;;;;0.80;42.84;101720.31;1747875;81;20947;-48
2022/03/17 04:54:17;;;;;;;;;;;;;;;0.91;42.58;101729.70;1750301;80;22269;-48
2022/03/17 04:56:43;;;;;;;11.57;7.13;;;;;;;0.93;42.71;101731.50;1747761;81;20227;-48
2022/03/17 04:59:10;;;;;;;12.57;6.80;;;;;;;0.95;42.58;101732.42;1747902;81;21603;-48
2022/03/17 05:01:37;;;;;;;10.40;6.53;;;;;;;0.95;42.78;101738.89;1747900;81;21897;-48
2022/03/17 05:04:04;;;;;;;12.65;6.72;;;;;;;1.01;42.71;101739.49;1747654;81;21539;-48
2022/03/17 05:06:32;;;;;;;12.82;6.92;;;;;;;1.06;42.60;101740.95;1747702;81;21907;-48
2022/03/17 05:08:59;;;;;;;10.88;6.37;;;;;;;1.12;42.42;101744.58;1747606;81;21417;-47
2022/03/17 05:11:26;;;;;;;12.98;6.92;;;;;;;1.19;42.29;101752.52;1747949;81;21567;-48
2022/03/17 05:13:54;;;;;;;11.20;6.78;;;;;;;1.24;42.15;101744.47;1747506;80;21516;-47
2022/03/17 05:16:20;;;;;;;12.13;7.10;;;;;;;1.32;42.00;101750.35;1747598;81;21483;-48
2022/03/17 05:18:48;;;;;;;14.30;7.42;;;;;;;1.40;42.00;101758.77;1747678;81;21962;-48
2022/03/17 05:21:15;;;;;;;;;;;;;;;1.52;41.73;101757.38;1750159;81;21465;-47
2022/03/17 05:23:42;;;;;;;9.95;7.15;;;;;;;1.58;41.27;101766.17;1747993;81;20426;-49
2022/03/17 05:26:10;;;;;;;12.82;7.70;;;;;;;1.65;41.02;101771.56;1747642;81;21477;-47
2022/03/17 05:28:38;;;;;;;12.50;7.95;;;;;;;1.77;41.06;101773.61;1747688;81;21457;-48
2022/03/17 05:31:05;;;;;;;15.17;8.67;;;;;;;1.85;40.74;101775.14;1747823;81;21895;-48
2022/03/17 05:33:32;;;;;;;13.95;7.65;;;;;;;1.95;40.66;101772.81;1747617;81;21735;-48
2022/03/17 05:35:59;;;;;;;11.68;7.45;;;;;;;2.08;41.01;101777.91;1747814;80;21429;-48
2022/03/17 05:38:26;;;;;;;12.68;7.87;;;;;;;2.18;40.20;101785.52;1745604;80;21477;-50
2022/03/17 05:40:53;;;;;;;9.33;6.40;;;;;;;2.31;40.03;101788.88;1708962;83;21518;-48
2022/03/17 05:43:20;;;;;;;14.13;7.63;;;;;;;2.45;40.05;101787.04;1714457;81;21788;-48
2022/03/17 05:45:48;;;;;;;6.72;5.60;;;;;;;2.59;39.81;101793.89;1698955;83;21475;-49
2022/03/17 05:48:15;;;;;;;12.10;6.62;;;;;;;2.71;39.23;101787.28;1679474;84;21507;-48
2022/03/17 05:50:45;;;;;;;12.53;7.40;;;;;;;2.86;39.04;101788.45;1705021;83;20978;-48
2022/03/17 05:53:11;;;;;;;14.15;7.22;;;;;;;2.93;38.73;101786.03;1705177;83;21634;-48
2022/03/17 05:55:38;;;;;;;8.15;5.90;;;;;;;3.05;38.27;101794.95;1705242;82;22109;-48
2022/03/17 05:58:06;;;;;;;;;;;;;;;3.17;38.15;101791.77;1707504;83;21105;-48
2022/03/17 06:00:33;;;;;;;9.68;5.53;;;;;;;3.23;37.59;101791.89;1704754;83;20150;-48
2022/03/17 06:03:00;;;;;;;8.30;6.05;;;;;;;3.28;37.64;101796.34;1704648;83;21488;-48
2022/03/17 06:05:28;;;;;;;7.95;5.72;;;;;;;3.37;37.60;101790.48;1704865;83;20959;-48
2022/03/17 06:08:00;;;;;;;7.47;5.22;;;;;;;3.51;37.65;101791.62;1708965;82;22111;-48
2022/03/17 06:10:29;;;;;;;8.80;5.67;;;;;;;3.58;37.17;101790.43;1734220;81;20995;-48
2022/03/17 06:12:57;;;;;;;7.15;5.65;;;;;;;3.64;37.23;101796.66;1734082;82;21507;-48
2022/03/17 06:15:23;;;;;;;7.28;5.30;;;;;;;3.66;36.66;101795.39;1734300;81;21495;-48
2022/03/17 06:17:57;;;;;;;7.60;5.60;;;;;;;3.74;36.77;101796.41;1734198;82;22034;-48
2022/03/17 06:20:29;;;;;;;7.12;5.58;;;;;;;3.71;36.41;101795.03;1734219;82;21835;-48
2022/03/17 06:23:01;;;;;;;7.20;5.90;;;;;;;3.73;36.09;101805.08;1734061;81;21423;-47
2022/03/17 06:25:32;;;;;;;8.68;5.87;;;;;;;3.74;35.77;101800.31;1733962;82;21437;-47
2022/03/17 06:27:59;;;;;;;6.72;5.47;;;;;;;3.73;34.92;101794.67;1733954;82;20963;-48
2022/03/17 06:30:35;;;;;;;6.85;5.00;;;;;;;3.78;35.85;101793.01;1734443;82;21408;-47
2022/03/17 06:33:01;;;;;;;8.05;5.08;;;;;;;3.79;34.96;101789.58;1734084;82;22218;-48
2022/03/17 06:35:30;;;;;;;7.72;5.62;;;;;;;3.84;35.20;101798.36;1730714;81;21464;-48
2022/03/17 06:37:59;;;;;;;6.78;5.22;;;;;;;3.89;34.94;101799.73;1734114;81;25976;-48
2022/03/17 06:40:26;;;;;;;5.95;5.35;;;;;;;4.00;35.17;101802.55;1708903;82;21536;-48
2022/03/17 06:42:55;;;;;;;5.55;4.55;;;;;;;4.09;34.84;101801.42;1670248;85;21486;-48
2022/03/17 06:45:23;;;;;;;5.97;4.70;;;;;;;4.13;34.36;101804.52;1704549;83;21775;-48
2022/03/17 06:47:50;;;;;;;5.55;4.47;;;;;;;4.17;34.00;101804.16;1705401;82;21472;-48
2022/03/17 06:50:17;;;;;;;7.85;5.62;;;;;;;4.21;34.19;101803.36;1724858;81;21499;-48
2022/03/17 06:52:44;;;;;;;7.42;5.10;;;;;;;4.24;33.48;101808.20;1747270;81;21603;-48
2022/03/17 06:55:11;;;;;;;6.78;4.55;;;;;;;4.26;33.49;101802.59;1747416;81;21442;-48
2022/03/17 06:57:40;;;;;;;6.50;4.70;;;;;;;4.28;33.15;101806.09;1747309;81;21465;-48
2022/03/17 07:00:09;;;;;;;7.72;5.33;;;;;;;4.25;32.97;101796.05;1730491;81;21457;-47
2022/03/17 07:02:36;;;;;;;6.17;4.92;;;;;;;4.37;32.92;101800.18;1747216;81;21495;-50
2022/03/17 07:05:05;;;;;;;5.87;4.53;;;;;;;4.37;32.14;101799.28;1747379;81;21520;-49
2022/03/17 07:07:33;;;;;;;10.08;4.80;;;;;;;4.45;31.62;101799.87;1747135;81;21500;-51
2022/03/17 07:10:00;;;;;;;6.72;3.87;;;;;;;4.44;31.26;101799.84;1747324;81;21883;-50
2022/03/17 07:12:29;;;;;;;7.72;4.95;;;;;;;4.47;31.09;101807.28;1747185;81;21457;-50
2022/03/17 07:14:57;;;;;;;7.22;5.40;;;;;;;4.56;31.11;101803.97;1747390;80;21434;-51
2022/03/17 07:17:24;;;;;;;6.80;4.72;;;;;;;4.73;31.18;101813.36;1747570;81;21484;-51
2022/03/17 07:22:27;;;;;;;6.22;4.00;;;;;;;4.92;29.99;101806.70;1747778;80;21798;-50
2022/03/17 07:24:54;;;;;;;6.30;4.20;;;;;;;5.05;29.46;101798.63;1747782;81;21496;-51
2022/03/17 07:27:21;;;;;;;5.62;4.00;;;;;;;5.24;29.49;101801.06;1747358;81;21638;-50
2022/03/17 07:29:48;;;;;;;8.00;4.37;;;;;;;5.41;28.37;101800.85;1747605;81;21552;-48
2022/03/17 07:32:15;;;;;;;8.38;4.65;;;;;;;6.02;27.99;101798.53;1747897;80;21515;-48
2022/03/17 07:34:42;;;;;;;6.30;3.87;;;;;;;7.15;26.75;101787.23;1747795;81;21523;-48
2022/03/17 07:37:09;;;;;;;5.70;3.85;;;;;;;8.24;25.58;101790.66;1747868;80;21421;-49
2022/03/17 07:39:36;;;;;;;7.42;4.80;;;;;;;9.24;24.34;101799.33;1747849;80;21460;-48
2022/03/17 07:42:05;;;;;;;5.72;3.98;;;;;;;9.89;23.52;101792.05;1747758;80;21492;-49
2022/03/17 07:44:36;;;;;;;4.65;3.60;;;;;;;10.50;22.67;101793.85;1745869;81;21515;-49
2022/03/17 07:47:09;;;;;;;4.70;3.92;;;;;;;11.10;22.41;101784.08;1742546;80;21880;-49
2022/03/17 07:49:38;;;;;;;4.30;3.30;;;;;;;11.55;21.68;101792.78;1745556;80;21425;-49
2022/03/17 07:52:06;;;;;;;5.47;3.52;;;;;;;12.02;21.09;101786.02;1744765;80;21579;-49
2022/03/17 07:54:33;;;;;;;3.90;3.50;;;;;;;12.43;21.17;101790.66;1735997;80;21538;-50
2022/03/17 07:57:03;;;;;;;5.45;3.83;;;;;;;13.06;21.02;101791.30;1712267;83;21455;-50
2022/03/17 07:59:30;;;;;;;4.65;3.72;;;;;;;13.66;20.78;101790.13;1722401;82;21806;-50
2022/03/17 08:01:57;;;;;;;3.95;3.55;;;;;;;14.17;19.84;101788.53;1706339;83;21430;-50
2022/03/17 08:04:23;;;;;;;6.22;3.95;;;;;;;14.43;19.51;101784.83;1705980;83;21545;-50
2022/03/17 08:06:53;;;;;;;6.72;3.45;;;;;;;14.67;19.02;101782.05;1706082;83;21029;-50
2022/03/17 08:09:21;;;;;;;5.40;3.20;;;;;;;14.66;18.64;101783.84;1706049;83;21041;-50
2022/03/17 08:11:49;;;;;;;6.10;3.55;;;;;;;14.82;18.83;101785.61;1705922;83;20931;-50
2022/03/17 08:14:16;;;;;;;5.83;3.10;;;;;;;15.13;18.20;101787.45;1706221;83;21463;-50
2022/03/17 08:16:44;;;;;;;4.37;3.17;;;;;;;15.45;18.44;101783.88;1706196;83;21503;-50
2022/03/17 08:19:11;;;;;;;5.40;3.58;;;;;;;15.86;18.03;101784.90;1705464;83;21438;-50
2022/03/17 08:21:39;;;;;;;4.00;3.58;;;;;;;15.76;17.65;101782.56;1706236;83;21450;-50
2022/03/17 08:24:08;;;;;;;4.00;3.67;;;;;;;15.81;17.75;101781.55;1705971;83;21438;-50
2022/03/17 08:26:35;;;;;;;6.05;3.92;;;;;;;15.87;17.69;101777.37;1705974;83;21506;-50
2022/03/17 08:29:02;;;;;;;4.70;3.80;;;;;;;16.03;17.45;101772.44;1706234;83;21091;-50
2022/03/17 08:31:30;;;;;;;4.40;3.58;;;;;;;15.68;17.86;101786.31;1706157;83;20970;-49
2022/03/17 08:33:56;;;;;;;4.30;3.45;;;;;;;15.96;17.81;101777.08;1706254;83;21459;-50
2022/03/17 08:36:24;;;;;;;6.10;4.30;;;;;;;16.02;17.45;101780.00;1705932;83;21545;-50
2022/03/17 08:38:52;;;;;;;6.17;4.10;;;;;;;16.20;17.65;101766.59;1706191;83;23257;-50
2022/03/17 08:41:19;;;;;;;6.75;3.83;;;;;;;16.65;17.53;101764.20;1691375;83;21419;-51
2022/03/17 08:43:48;;;;;;;7.42;4.15;;;;;;;16.65;17.53;101764.20;1726552;80;21450;-50
2022/03/17 08:49:20;;;;;;;5.10;3.77;;;;;;;16.99;16.93;101772.34;1742534;80;21395;-50
2022/03/17 08:51:47;;;;;;;4.83;4.33;;;;;;;17.52;16.90;101763.30;1720785;81;21471;-50
2022/03/17 08:54:14;;;;;;;5.55;3.92;;;;;;;17.55;16.43;101760.98;1717572;82;21530;-51
2022/03/17 08:56:42;;;;;;;4.60;3.90;;;;;;;17.81;16.72;101770.14;1717344;82;21553;-51
2022/03/17 08:59:10;;;;;;;3.97;3.67;;;;;;;18.02;15.89;101755.61;1717515;82;21431;-50
2022/03/17 09:01:37;;;;;;;5.75;3.75;;;;;;;17.85;16.00;101761.61;1682878;84;21903;-51
2022/03/17 09:04:05;;;;;;;7.12;3.90;;;;;;;17.88;16.18;101764.16;1682625;84;21601;-50
2022/03/17 09:06:32;;;;;;;5.53;3.70;;;;;;;18.06;16.08;101759.44;1682903;84;21498;-51
2022/03/17 09:08:59;;;;;;;6.47;3.75;;;;;;;18.00;15.98;101764.12;1682442;84;21545;-50
2022/03/17 09:11:26;;;;;;;4.53;3.60;;;;;;;17.08;16.39;101767.14;1682591;84;21651;-50
2022/03/17 09:13:53;;;;;;;3.97;3.57;;;;;;;16.72;16.32;101762.18;1682836;83;21793;-50
2022/03/17 09:16:20;;;;;;;4.70;3.98;;;;;;;16.64;16.52;101758.94;1682693;84;21419;-50
2022/03/17 09:18:48;;;;;;;4.10;3.70;;;;;;;16.84;16.60;101769.77;1682732;84;21430;-50
2022/03/17 09:21:14;;;;;;;5.60;4.17;;;;;;;17.09;16.20;101770.22;1682602;84;21476;-50
2022/03/17 09:23:41;;;;;;;5.30;4.08;;;;;;;16.97;16.20;101769.31;1682600;83;21421;-50
2022/03/17 09:26:08;;;;;;;5.30;4.42;;;;;;;16.98;16.35;101757.78;1682647;84;22027;-51
2022/03/17 09:28:35;;;;;;;5.17;4.67;;;;;;;16.90;16.55;101764.70;1682538;84;20947;-49
2022/03/17 09:31:01;;;;;;;4.80;4.10;;;;;;;16.85;16.49;101757.34;1692510;82;21576;-50
2022/03/17 09:33:28;;;;;;;4.55;4.15;;;;;;;15.68;17.19;101763.77;1711278;83;21651;-50
2022/03/17 09:35:56;;;;;;;5.78;4.35;;;;;;;14.82;17.45;101772.84;1685698;83;21541;-50
2022/03/17 09:38:23;;;;;;;6.05;4.50;;;;;;;15.01;17.63;101773.20;1682879;84;25721;-50
2022/03/17 09:40:50;;;;;;;5.93;4.33;;;;;;;15.60;17.57;101765.80;1682917;84;21474;-49
